createdAt,value
2023-04-11T00:00:01.404Z,13.23
2023-04-11T00:05:06.038Z,13.19
2023-04-11T00:10:10.454Z,13.16
2023-04-11T00:15:16.972Z,13.15
2023-04-11T00:20:20.847Z,13.14
2023-04-11T00:25:24.741Z,13.09
2023-04-11T00:30:29.677Z,13.11
2023-04-11T00:35:34.723Z,13.08
2023-04-11T00:40:38.780Z,13.07
2023-04-11T00:45:44.284Z,13.07
2023-04-11T00:50:48.232Z,13.05
2023-04-11T00:55:53.881Z,13.04
2023-04-11T01:00:58.814Z,13.09
2023-04-11T01:06:02.276Z,13.10
2023-04-11T01:11:06.749Z,13.11
2023-04-11T01:16:13.033Z,13.15
2023-04-11T01:21:19.782Z,13.17
2023-04-11T01:26:24.428Z,13.18
2023-04-11T01:31:27.588Z,13.18
2023-04-11T01:36:31.848Z,13.17
2023-04-11T01:41:37.706Z,13.18
2023-04-11T01:46:42.082Z,13.15
2023-04-11T01:51:46.092Z,12.99
2023-04-11T01:56:52.808Z,12.79
2023-04-11T02:01:56.196Z,12.56
2023-04-11T02:06:59.504Z,12.34
2023-04-11T02:12:04.560Z,12.25
2023-04-11T02:17:10.166Z,12.12
2023-04-11T02:22:14.562Z,11.97
2023-04-11T02:27:19.108Z,11.87
2023-04-11T02:32:22.432Z,11.67
2023-04-11T02:37:28.673Z,11.59
2023-04-11T02:42:33.301Z,11.49
2023-04-11T02:47:36.750Z,11.37
2023-04-11T02:52:42.326Z,11.32
2023-04-11T02:57:47.142Z,11.19
2023-04-11T03:02:50.679Z,11.08
2023-04-11T03:07:54.051Z,11.02
2023-04-11T03:12:58.847Z,10.92
2023-04-11T03:18:02.206Z,10.86
2023-04-11T03:23:05.739Z,10.84
2023-04-11T03:28:10.346Z,10.81
2023-04-11T03:33:13.661Z,10.84
2023-04-11T03:38:16.862Z,10.86
2023-04-11T03:43:21.580Z,10.87
2023-04-11T03:48:26.484Z,10.85
2023-04-11T03:53:29.935Z,10.88
2023-04-11T03:58:34.792Z,10.87
2023-04-11T04:03:38.407Z,10.88
2023-04-11T04:08:42.024Z,10.92
2023-04-11T04:13:47.877Z,10.94
2023-04-11T04:18:51.122Z,10.94
2023-04-11T04:23:55.953Z,10.93
2023-04-11T04:29:04.611Z,10.93
2023-04-11T04:34:09.720Z,10.94
2023-04-11T04:39:18.026Z,10.97
2023-04-11T04:44:23.020Z,10.95
2023-04-11T04:49:26.397Z,10.96
2023-04-11T04:54:31.636Z,11.05
2023-04-11T04:59:38.526Z,11.13
2023-04-11T05:04:42.346Z,11.16
2023-04-11T05:09:46.162Z,11.25
2023-04-11T05:14:51.186Z,11.26
2023-04-11T05:19:54.595Z,11.23
2023-04-11T05:25:00.197Z,11.25
2023-04-11T05:30:05.915Z,11.28
2023-04-11T05:35:09.687Z,11.29
2023-04-11T05:40:16.288Z,11.29
2023-04-11T05:45:21.509Z,11.32
2023-04-11T05:50:25.066Z,11.37
2023-04-11T05:55:28.819Z,11.40
2023-04-11T06:00:33.839Z,11.42
2023-04-11T06:05:37.902Z,11.41
2023-04-11T06:10:41.169Z,11.40
2023-04-11T06:15:47.003Z,11.47
2023-04-11T06:20:51.431Z,11.48
2023-04-11T06:25:54.906Z,11.46
2023-04-11T06:31:04.779Z,11.48
2023-04-11T06:36:08.810Z,11.51
2023-04-11T06:41:12.037Z,11.54
2023-04-11T06:46:17.643Z,11.58
2023-04-11T06:51:21.069Z,11.58
2023-04-11T06:56:31.783Z,11.65
2023-04-11T07:01:39.533Z,11.74
2023-04-11T07:06:43.089Z,11.75
2023-04-11T07:11:50.078Z,11.84
2023-04-11T07:17:03.927Z,11.89
2023-04-11T07:22:09.500Z,11.94
2023-04-11T07:27:14.103Z,12.10
2023-04-11T07:32:19.527Z,12.10
2023-04-11T07:37:23.844Z,12.14
2023-04-11T07:42:27.057Z,12.18
2023-04-11T07:47:32.525Z,12.35
2023-04-11T07:52:38.666Z,12.56
2023-04-11T07:57:42.131Z,13.04
2023-04-11T08:02:46.967Z,13.42
2023-04-11T08:07:50.313Z,13.69
2023-04-11T08:12:53.696Z,14.20
2023-04-11T08:17:59.962Z,15.82
2023-04-11T08:23:07.341Z,15.48
2023-04-11T08:28:12.387Z,15.40
2023-04-11T08:33:20.767Z,16.26
2023-04-11T08:38:24.391Z,17.00
2023-04-11T08:43:28.125Z,17.73
2023-04-11T08:48:33.120Z,18.07
2023-04-11T08:53:38.367Z,17.62
2023-04-11T08:58:43.626Z,18.07
2023-04-11T09:03:52.756Z,17.46
2023-04-11T09:08:56.405Z,16.93
2023-04-11T09:14:12.618Z,16.95
2023-04-11T09:19:30.338Z,17.39
2023-04-11T09:24:40.683Z,18.04
2023-04-11T09:29:45.652Z,18.15
2023-04-11T09:34:50.778Z,18.25
2023-04-11T09:40:01.003Z,18.63
2023-04-11T09:45:04.575Z,18.76
2023-04-11T09:50:10.254Z,18.86
2023-04-11T09:55:16.441Z,18.78
2023-04-11T10:00:22.000Z,17.94
2023-04-11T10:05:29.422Z,17.03
2023-04-11T10:10:34.621Z,16.40
2023-04-11T10:15:38.374Z,15.80
2023-04-11T10:20:50.471Z,15.57
2023-04-11T10:25:56.404Z,15.41
2023-04-11T10:31:09.117Z,15.50
2023-04-11T10:36:13.841Z,15.98
2023-04-11T10:41:27.384Z,16.20
2023-04-11T10:46:30.977Z,16.30
2023-04-11T10:51:35.940Z,16.05
2023-04-11T10:56:58.025Z,15.91
2023-04-11T11:02:02.693Z,15.83
2023-04-11T11:07:13.826Z,15.85
2023-04-11T11:12:17.970Z,15.83
2023-04-11T11:17:22.217Z,15.93
2023-04-11T11:22:26.945Z,16.38
2023-04-11T11:27:30.351Z,16.83
2023-04-11T11:32:33.616Z,16.74
2023-04-11T11:37:38.375Z,16.77
2023-04-11T11:42:42.328Z,17.00
2023-04-11T11:47:46.601Z,17.19
2023-04-11T11:52:51.665Z,17.12
2023-04-11T11:57:55.130Z,16.83
2023-04-11T12:03:00.935Z,16.95
2023-04-11T12:08:08.246Z,16.97
2023-04-11T12:13:17.110Z,16.85
2023-04-11T12:18:22.644Z,16.56
2023-04-11T12:23:27.412Z,16.84
2023-04-11T12:28:30.728Z,16.86
2023-04-11T12:33:33.879Z,16.77
2023-04-11T12:38:38.778Z,16.66
2023-04-11T12:43:42.128Z,16.77
2023-04-11T12:48:45.992Z,16.88
2023-04-11T12:53:52.844Z,16.87
2023-04-11T12:58:56.832Z,16.82
2023-04-11T13:04:01.027Z,16.92
2023-04-11T13:09:07.864Z,17.01
2023-04-11T13:14:11.285Z,16.93
2023-04-11T13:19:14.840Z,17.01
2023-04-11T13:24:19.765Z,16.78
2023-04-11T13:29:23.243Z,16.26
2023-04-11T13:34:26.707Z,15.83
2023-04-11T13:39:31.218Z,15.57
2023-04-11T13:44:35.347Z,15.69
2023-04-11T13:49:38.846Z,15.76
2023-04-11T13:54:43.630Z,15.70
2023-04-11T13:59:46.873Z,15.61
2023-04-11T14:04:51.145Z,15.52
2023-04-11T14:09:56.032Z,15.43
2023-04-11T14:15:02.436Z,15.41
2023-04-11T14:20:07.155Z,15.45
2023-04-11T14:25:13.562Z,15.63
2023-04-11T14:30:17.277Z,16.08
2023-04-11T14:35:21.676Z,16.18
2023-04-11T14:40:26.347Z,16.10
2023-04-11T14:45:30.577Z,16.06
2023-04-11T14:50:34.485Z,15.99
2023-04-11T14:55:42.783Z,15.87
2023-04-11T15:00:47.312Z,15.67
2023-04-11T15:05:50.641Z,15.47
2023-04-11T15:10:56.433Z,15.37
2023-04-11T15:16:01.524Z,15.28
2023-04-11T15:21:05.144Z,15.17
2023-04-11T15:26:10.039Z,14.97
2023-04-11T15:31:14.777Z,14.91
2023-04-11T15:36:18.532Z,15.02
2023-04-11T15:41:24.087Z,15.04
2023-04-11T15:46:29.351Z,15.02
2023-04-11T15:51:34.033Z,14.93
2023-04-11T15:56:41.564Z,14.88
2023-04-11T16:01:44.956Z,14.82
2023-04-11T16:06:48.184Z,14.72
2023-04-11T16:11:53.371Z,14.53
2023-04-11T16:16:57.623Z,14.31
2023-04-11T16:22:01.018Z,14.09
2023-04-11T16:27:07.296Z,14.00
2023-04-11T16:32:10.737Z,13.84
2023-04-11T16:37:14.516Z,13.80
2023-04-11T16:42:20.513Z,13.82
2023-04-11T16:47:26.995Z,13.85
2023-04-11T16:52:30.737Z,13.74
2023-04-11T16:57:35.682Z,13.32
2023-04-11T17:02:39.148Z,12.72
2023-04-11T17:07:43.884Z,12.46
2023-04-11T17:12:54.162Z,12.14
2023-04-11T17:17:57.492Z,11.92
2023-04-11T17:23:04.724Z,11.65
2023-04-11T17:28:09.806Z,11.38
2023-04-11T17:33:13.447Z,11.16
2023-04-11T17:38:18.101Z,10.96
2023-04-11T17:43:23.906Z,10.85
2023-04-11T17:48:28.856Z,10.76
2023-04-11T17:53:36.388Z,10.69
2023-04-11T17:58:46.792Z,10.64
2023-04-11T18:03:50.934Z,10.60
2023-04-11T18:08:57.619Z,10.49
2023-04-11T18:14:02.683Z,10.21
2023-04-11T18:19:11.394Z,10.07
2023-04-11T18:24:15.010Z,9.88
2023-04-11T18:29:19.917Z,9.78
2023-04-11T18:34:23.375Z,9.73
2023-04-11T18:39:26.597Z,9.78
2023-04-11T18:44:32.000Z,9.72
2023-04-11T18:49:35.712Z,9.56
2023-04-11T18:54:40.374Z,9.45
2023-04-11T18:59:49.383Z,9.32
2023-04-11T19:04:55.631Z,9.20
2023-04-11T19:09:59.972Z,9.12
2023-04-11T19:15:11.377Z,9.07
2023-04-11T19:20:15.937Z,8.97
2023-04-11T19:25:19.733Z,8.85
2023-04-11T19:30:24.716Z,8.79
2023-04-11T19:35:28.425Z,8.73
2023-04-11T19:40:32.028Z,8.64
2023-04-11T19:45:36.911Z,8.55
2023-04-11T19:50:41.310Z,8.47
2023-04-11T19:55:45.560Z,8.42
2023-04-11T20:00:50.272Z,8.35
2023-04-11T20:05:53.567Z,8.31
2023-04-11T20:10:56.886Z,8.23
2023-04-11T20:16:04.831Z,8.20
2023-04-11T20:21:09.526Z,8.16
2023-04-11T20:26:12.792Z,8.14
2023-04-11T20:31:17.553Z,8.09
2023-04-11T20:36:20.788Z,8.05
2023-04-11T20:41:24.648Z,8.02
2023-04-11T20:46:31.202Z,7.98
2023-04-11T20:51:34.728Z,7.90
2023-04-11T20:56:38.017Z,7.85
2023-04-11T21:01:44.145Z,7.77
2023-04-11T21:06:47.532Z,7.72
2023-04-11T21:11:50.765Z,7.68
2023-04-11T21:16:55.612Z,7.62
2023-04-11T21:22:00.169Z,7.56
2023-04-11T21:27:03.903Z,7.53
2023-04-11T21:32:08.549Z,7.49
2023-04-11T21:37:11.998Z,7.45
2023-04-11T21:42:15.456Z,7.42
2023-04-11T21:47:20.250Z,7.40
2023-04-11T21:52:23.707Z,7.37
2023-04-11T21:57:27.317Z,7.32
2023-04-11T22:02:32.211Z,7.30
2023-04-11T22:07:39.431Z,7.27
2023-04-11T22:12:45.862Z,7.24
2023-04-11T22:17:54.618Z,7.19
2023-04-11T22:22:59.104Z,7.15
2023-04-11T22:28:02.497Z,7.13
2023-04-11T22:33:07.508Z,7.08
2023-04-11T22:38:10.772Z,7.06
2023-04-11T22:43:13.985Z,7.06
2023-04-11T22:48:18.688Z,7.03
2023-04-11T22:53:25.382Z,7.02
2023-04-11T22:58:29.053Z,6.97
2023-04-11T23:03:33.634Z,6.96
2023-04-11T23:08:37.160Z,6.94
2023-04-11T23:13:41.229Z,6.92
2023-04-11T23:18:45.935Z,6.90
2023-04-11T23:23:49.269Z,6.89
2023-04-11T23:28:52.588Z,6.87
2023-04-11T23:33:58.292Z,6.84
2023-04-11T23:39:02.266Z,6.81
2023-04-11T23:44:06.039Z,6.81
2023-04-11T23:49:10.776Z,6.80
2023-04-11T23:54:14.038Z,6.82
2023-04-11T23:59:18.437Z,6.82
